Time;durP1;ratioP1;P1;durP2;ratioP2;P2;SDS_P1;SDS_P2;PMS_P1;PMS_P2;Temp;Humidity;BMP_temperature;BMP_pressure;BME280_temperature;BME280_humidity;BME280_pressure;Samples;Min_cycle;Max_cycle;Signal;HPM_P1;HPM_P2
2021/12/24 00:00:01;;;;;;;4.60;4.23;;;9.40;99.90;;;;;;4987004;28;20243;-92
2021/12/24 00:02:26;;;;;;;3.93;2.37;;;9.30;99.90;;;;;;4969913;28;20634;-92
2021/12/24 00:04:52;;;;;;;4.23;2.13;;;9.40;99.90;;;;;;4954770;28;20204;-93
2021/12/24 00:07:18;;;;;;;7.67;3.37;;;9.40;99.90;;;;;;4970024;28;20988;-92
2021/12/24 00:09:44;;;;;;;3.47;2.87;;;9.40;99.90;;;;;;4954346;28;20220;-93
2021/12/24 00:12:15;;;;;;;4.17;2.50;;;9.40;99.90;;;;;;4969535;28;20230;-92
2021/12/24 00:14:47;;;;;;;4.00;3.60;;;9.40;99.90;;;;;;5002412;28;20290;-92
2021/12/24 00:17:15;;;;;;;4.33;2.90;;;9.40;99.90;;;;;;4974729;28;20231;-93
2021/12/24 00:19:59;;;;;;;7.17;3.63;;;9.50;99.90;;;;;;4974152;28;20179;-93
2021/12/24 00:35:55;;;;;;;12.50;4.30;;;9.50;99.90;;;;;;4976273;28;20269;-93
2021/12/24 00:38:21;;;;;;;8.03;2.80;;;9.50;99.90;;;;;;4957536;28;21209;-91
2021/12/24 00:40:48;;;;;;;8.13;4.43;;;9.50;99.90;;;;;;4973431;28;20204;-93
2021/12/24 00:43:16;;;;;;;6.63;4.97;;;9.50;99.90;;;;;;4973769;28;20232;-93
2021/12/24 00:45:44;;;;;;;6.20;2.93;;;9.50;99.90;;;;;;4989014;28;20229;-94
2021/12/24 00:48:12;;;;;;;7.73;3.30;;;9.50;99.90;;;;;;4989289;28;20242;-93
2021/12/24 00:51:07;;;;;;;6.97;4.03;;;9.60;99.90;;;;;;4980843;28;20693;-92
2021/12/24 00:56:09;;;;;;;8.70;4.30;;;9.50;99.90;;;;;;4989527;28;20258;-92
2021/12/24 00:58:36;;;;;;;12.53;4.53;;;9.50;99.90;;;;;;4989592;28;20187;-93
2021/12/24 01:01:04;;;;;;;11.80;5.27;;;9.50;99.90;;;;;;4972720;28;20212;-93
2021/12/24 01:03:29;;;;;;;3.57;2.57;;;9.50;99.90;;;;;;4972812;28;20220;-93
2021/12/24 01:05:55;;;;;;;7.57;3.40;;;9.50;99.90;;;;;;4956399;28;20239;-93
2021/12/24 01:08:21;;;;;;;5.33;2.90;;;9.60;99.90;;;;;;4988935;28;20578;-92
2021/12/24 01:10:58;;;;;;;4.80;2.93;;;9.60;99.90;;;;;;4973325;28;20672;-93
2021/12/24 01:13:26;;;;;;;2.50;1.53;;;9.50;99.90;;;;;;4969186;28;20355;-92
2021/12/24 01:16:00;;;;;;;6.10;3.57;;;9.60;99.90;;;;;;4985507;28;20369;-93
2021/12/24 01:21:11;;;;;;;1.43;1.13;;;9.60;99.90;;;;;;4990012;28;20342;-92
2021/12/24 01:23:47;;;;;;;2.50;2.23;;;9.50;99.90;;;;;;4974312;28;20216;-92
2021/12/24 01:26:20;;;;;;;2.50;1.97;;;9.60;99.90;;;;;;4972903;28;20563;-93
2021/12/24 01:40:08;;;;;;;0.70;0.70;;;9.70;99.90;;;;;;4974769;28;20305;-92
2021/12/24 01:42:42;;;;;;;7.73;2.93;;;9.70;99.90;;;;;;4987612;28;20312;-93
2021/12/24 01:45:30;;;;;;;8.77;2.37;;;9.70;99.90;;;;;;4988305;28;20353;-92
2021/12/24 01:47:59;;;;;;;3.83;2.43;;;9.70;99.90;;;;;;4988272;28;20563;-91
2021/12/24 01:50:27;;;;;;;5.47;2.53;;;9.70;99.90;;;;;;5004759;28;20231;-92
2021/12/24 01:52:55;;;;;;;2.13;1.70;;;9.70;99.90;;;;;;4972612;28;20184;-93
2021/12/24 01:55:21;;;;;;;3.40;2.37;;;9.70;99.90;;;;;;4972907;28;20747;-92
2021/12/24 01:57:48;;;;;;;3.23;2.90;;;9.70;99.90;;;;;;4971314;28;20220;-92
2021/12/24 02:00:41;;;;;;;3.37;2.63;;;9.60;99.90;;;;;;4988182;28;20303;-93
2021/12/24 02:03:09;;;;;;;5.33;2.67;;;9.60;99.90;;;;;;4987530;28;20216;-91
2021/12/24 02:05:35;;;;;;;7.07;2.93;;;9.60;99.90;;;;;;4971475;28;20235;-92
2021/12/24 02:08:02;;;;;;;2.43;2.17;;;9.60;99.90;;;;;;4987929;28;20967;-93
2021/12/24 02:10:29;;;;;;;5.40;3.13;;;9.60;99.90;;;;;;4987551;28;20227;-93
2021/12/24 02:12:55;;;;;;;2.60;2.40;;;9.60;99.90;;;;;;4955801;28;20678;-93
2021/12/24 02:15:45;;;;;;;2.97;1.83;;;9.60;99.90;;;;;;5004076;28;20224;-93
2021/12/24 02:29:10;;;;;;;3.23;2.07;;;9.70;99.90;;;;;;4974069;28;20230;-92
2021/12/24 02:31:36;;;;;;;3.83;3.20;;;9.70;99.90;;;;;;4971587;28;20207;-92
2021/12/24 02:34:02;;;;;;;3.57;3.27;;;9.60;99.90;;;;;;4971090;28;20212;-93
2021/12/24 02:36:28;;;;;;;3.67;3.37;;;9.60;99.90;;;;;;4970392;28;20219;-91
2021/12/24 02:38:55;;;;;;;1.73;1.67;;;9.60;99.90;;;;;;4970310;28;20575;-92
2021/12/24 02:41:29;;;;;;;4.63;0.80;;;9.70;99.90;;;;;;4986942;28;20223;-92
2021/12/24 02:43:55;;;;;;;5.10;2.37;;;9.70;99.90;;;;;;4987127;28;20489;-92
2021/12/24 02:46:53;;;;;;;5.57;3.43;;;9.70;99.90;;;;;;4957544;28;20258;-91
2021/12/24 02:53:57;;;;;;;3.10;2.57;;;9.70;99.90;;;;;;4972623;28;20208;-92
2021/12/24 02:54:52;;;;;;;7.10;3.37;;;9.80;99.90;;;;;;4987013;28;20204;-93
2021/12/24 02:57:21;;;;;;;11.63;3.77;;;9.80;99.90;;;;;;4954620;28;20270;-93
2021/12/24 02:59:58;;;;;;;2.80;2.17;;;9.80;99.90;;;;;;4969334;28;20246;-93
2021/12/24 03:02:30;;;;;;;3.80;3.03;;;9.80;99.90;;;;;;4948881;28;20242;-93
2021/12/24 03:04:56;;;;;;;5.83;4.70;;;9.80;99.90;;;;;;4977622;28;20199;-93
2021/12/24 03:07:22;;;;;;;9.40;4.17;;;9.90;99.90;;;;;;4960846;28;20220;-93
2021/12/24 03:09:48;;;;;;;4.40;1.90;;;9.90;99.90;;;;;;4968023;28;20216;-93
2021/12/24 03:12:14;;;;;;;4.13;3.07;;;9.80;99.90;;;;;;4943106;28;20569;-93
2021/12/24 03:14:40;;;;;;;4.70;2.57;;;9.80;99.90;;;;;;4976960;28;20243;-92
2021/12/24 03:17:10;;;;;;;5.13;3.00;;;9.90;99.90;;;;;;4961012;28;20259;-92
2021/12/24 03:19:37;;;;;;;2.07;1.53;;;9.90;99.90;;;;;;4946135;28;20192;-93
2021/12/24 03:24:38;;;;;;;6.77;3.00;;;10.00;99.90;;;;;;4975463;28;20306;-93
2021/12/24 03:27:08;;;;;;;1.97;1.83;;;10.00;99.90;;;;;;4961458;28;20311;-91
2021/12/24 03:29:35;;;;;;;5.60;5.07;;;10.00;99.90;;;;;;4959824;28;20581;-93
2021/12/24 03:32:04;;;;;;;4.63;3.23;;;10.10;99.90;;;;;;4964849;28;20624;-92
2021/12/24 03:34:31;;;;;;;2.47;2.03;;;10.10;99.90;;;;;;4960754;28;20655;-92
2021/12/24 03:36:57;;;;;;;1.90;1.80;;;10.10;99.90;;;;;;4977462;28;20558;-93
2021/12/24 03:39:26;;;;;;;14.37;5.53;;;10.20;99.90;;;;;;4945736;28;20263;-92
2021/12/24 03:41:54;;;;;;;5.63;3.93;;;10.20;99.90;;;;;;4961282;28;20209;-93
2021/12/24 03:44:20;;;;;;;4.23;2.50;;;10.10;99.90;;;;;;4976690;28;20567;-93
2021/12/24 03:52:18;;;;;;;16.47;3.80;;;10.20;99.90;;;;;;5000390;28;20219;-92
2021/12/24 03:54:56;;;;;;;6.37;3.70;;;10.10;99.90;;;;;;4964009;28;20219;-92
2021/12/24 03:57:32;;;;;;;15.83;4.63;;;10.10;99.90;;;;;;4990404;28;20223;-93
2021/12/24 04:00:15;;;;;;;9.57;2.37;;;10.10;99.90;;;;;;4990348;28;20223;-92
2021/12/24 04:02:41;;;;;;;5.87;2.03;;;10.10;99.90;;;;;;5006265;28;20250;-93
2021/12/24 04:05:08;;;;;;;9.13;5.50;;;10.10;99.90;;;;;;4974222;28;20188;-92
2021/12/24 04:07:34;;;;;;;8.13;4.40;;;10.10;99.90;;;;;;4990194;28;20650;-92
2021/12/24 04:12:26;;;;;;;4.70;4.23;;;10.20;99.90;;;;;;4973971;28;20235;-93
2021/12/24 04:14:53;;;;;;;4.00;3.13;;;10.20;99.90;;;;;;4957576;28;20216;-93
2021/12/24 04:17:20;;;;;;;7.57;2.50;;;10.30;99.90;;;;;;4957307;28;20234;-92
2021/12/24 04:25:15;;;;;;;6.27;2.20;;;10.20;99.90;;;;;;4976813;28;20247;-92
2021/12/24 04:27:41;;;;;;;11.90;3.63;;;10.20;99.90;;;;;;4972845;28;20228;-91
2021/12/24 04:30:14;;;;;;;5.43;4.30;;;10.20;99.90;;;;;;4989477;28;20216;-93
2021/12/24 04:38:27;;;;;;;2.90;2.10;;;10.10;99.90;;;;;;4989819;28;20192;-93
2021/12/24 04:51:57;;;;;;;2.93;2.20;;;10.10;99.90;;;;;;4988941;28;20211;-91
2021/12/24 05:05:19;;;;;;;2.77;2.60;;;10.10;99.90;;;;;;4989350;28;20263;-91
2021/12/24 05:10:11;;;;;;;6.63;3.37;;;10.10;99.90;;;;;;4989623;28;20208;-92
2021/12/24 05:12:36;;;;;;;3.50;2.20;;;10.00;99.90;;;;;;4956373;28;20647;-93
2021/12/24 05:15:04;;;;;;;3.57;2.97;;;10.00;99.90;;;;;;4972352;28;20247;-92
2021/12/24 05:17:51;;;;;;;2.70;2.37;;;10.00;99.90;;;;;;4972522;28;20215;-92
2021/12/24 05:23:00;;;;;;;1.97;1.87;;;10.00;99.90;;;;;;4974973;28;20189;-92
2021/12/24 05:25:26;;;;;;;2.83;1.93;;;10.00;99.90;;;;;;4973083;28;20195;-94
2021/12/24 05:27:52;;;;;;;3.53;1.33;;;10.00;99.90;;;;;;4972407;28;20211;-93
2021/12/24 05:30:18;;;;;;;2.93;1.53;;;10.00;99.90;;;;;;4956108;28;20704;-93
2021/12/24 05:32:44;;;;;;;1.93;1.83;;;10.00;99.90;;;;;;4971798;28;20250;-92
2021/12/24 05:35:10;;;;;;;6.10;2.07;;;10.00;99.90;;;;;;4971895;28;20287;-92
2021/12/24 05:37:36;;;;;;;2.27;0.97;;;10.00;99.90;;;;;;4989014;28;20188;-94
2021/12/24 05:40:02;;;;;;;1.17;1.00;;;10.00;99.90;;;;;;4987978;28;20216;-92
2021/12/24 05:42:31;;;;;;;8.77;2.97;;;10.00;99.90;;;;;;4988029;28;20219;-91
2021/12/24 05:45:03;;;;;;;2.80;1.13;;;10.00;99.90;;;;;;4956148;28;20219;-93
2021/12/24 05:47:29;;;;;;;2.60;1.77;;;10.00;99.90;;;;;;4970270;28;20228;-91
2021/12/24 05:49:55;;;;;;;10.87;2.07;;;10.00;99.90;;;;;;4987730;28;20184;-92
2021/12/24 05:52:21;;;;;;;4.50;2.30;;;10.00;99.90;;;;;;4955995;28;20211;-93
2021/12/24 05:54:47;;;;;;;2.53;1.63;;;10.00;99.90;;;;;;4955490;28;20708;-93
2021/12/24 05:57:13;;;;;;;1.20;1.10;;;10.00;99.90;;;;;;5003640;28;20306;-92
2021/12/24 05:59:39;;;;;;;1.40;0.80;;;9.90;99.90;;;;;;4987111;28;20216;-92
2021/12/24 06:02:05;;;;;;;1.60;1.50;;;9.90;99.90;;;;;;4971817;28;20245;-92
2021/12/24 06:04:31;;;;;;;5.13;2.00;;;9.90;99.90;;;;;;4971762;28;20282;-93
2021/12/24 06:06:58;;;;;;;12.63;2.10;;;9.90;99.90;;;;;;4955445;28;20231;-92
2021/12/24 06:09:24;;;;;;;13.47;1.03;;;9.90;99.90;;;;;;4971814;28;20622;-93
2021/12/24 06:11:50;;;;;;;11.60;2.27;;;9.90;99.90;;;;;;4971797;28;20227;-93
2021/12/24 06:14:15;;;;;;;18.93;2.27;;;9.90;99.90;;;;;;4954325;28;20277;-92
2021/12/24 06:16:49;;;;;;;1.60;1.13;;;9.80;99.90;;;;;;4955983;28;20534;-93
2021/12/24 06:19:16;;;;;;;1.70;1.60;;;9.90;99.90;;;;;;4988198;28;20215;-92
2021/12/24 06:21:42;;;;;;;7.33;1.10;;;9.80;99.90;;;;;;4987187;28;20307;-92
2021/12/24 06:24:09;;;;;;;3.73;2.13;;;9.90;99.90;;;;;;4971269;28;20244;-92
2021/12/24 06:26:35;;;;;;;7.87;2.03;;;9.90;99.90;;;;;;4970766;28;20204;-93
2021/12/24 06:29:01;;;;;;;2.20;2.00;;;9.90;99.90;;;;;;4971085;28;20183;-92
2021/12/24 06:31:26;;;;;;;3.43;1.40;;;9.90;99.90;;;;;;4955799;28;20184;-94
2021/12/24 06:33:52;;;;;;;3.37;1.10;;;9.90;99.90;;;;;;4971149;28;20212;-92
2021/12/24 06:36:18;;;;;;;2.40;1.03;;;9.90;99.90;;;;;;4970169;28;20218;-92
2021/12/24 06:38:44;;;;;;;6.93;1.23;;;9.90;99.90;;;;;;4971467;28;20215;-92
2021/12/24 06:41:10;;;;;;;2.50;2.03;;;9.90;99.90;;;;;;4971003;28;20220;-93
2021/12/24 06:43:36;;;;;;;7.00;2.63;;;9.60;99.90;;;;;;4987119;28;20559;-92
2021/12/24 06:46:10;;;;;;;1.63;1.27;;;9.50;99.90;;;;;;4986144;28;20212;-92
2021/12/24 06:48:37;;;;;;;6.57;2.47;;;9.40;99.90;;;;;;4971771;28;20275;-92
2021/12/24 06:51:03;;;;;;;1.70;1.60;;;9.40;99.90;;;;;;4987782;28;20216;-93
2021/12/24 06:53:29;;;;;;;2.77;1.67;;;9.40;99.90;;;;;;4980617;28;20218;-94
2021/12/24 06:55:55;;;;;;;1.80;1.30;;;9.40;99.90;;;;;;4969996;28;20231;-92
2021/12/24 06:58:21;;;;;;;11.07;1.83;;;9.50;99.90;;;;;;4970556;28;20195;-92
2021/12/24 07:00:47;;;;;;;3.33;3.03;;;9.60;99.90;;;;;;4954446;28;20216;-92
2021/12/24 07:03:12;;;;;;;4.13;1.90;;;9.70;99.90;;;;;;4986848;28;20223;-92
2021/12/24 07:05:38;;;;;;;2.73;1.20;;;9.80;99.90;;;;;;4970248;28;20220;-93
2021/12/24 07:08:04;;;;;;;1.50;1.40;;;9.80;99.90;;;;;;4970949;28;20204;-93
2021/12/24 07:10:30;;;;;;;0.80;0.80;;;9.80;99.90;;;;;;4954969;28;20184;-92
2021/12/24 07:12:56;;;;;;;1.13;1.07;;;9.80;99.90;;;;;;4970131;28;20235;-92
2021/12/24 07:15:22;;;;;;;0.30;0.30;;;9.80;99.90;;;;;;4985996;28;20307;-92
2021/12/24 07:17:49;;;;;;;3.80;1.03;;;9.80;99.90;;;;;;4970381;28;20223;-92
2021/12/24 07:20:15;;;;;;;1.20;1.13;;;9.80;99.90;;;;;;4954457;28;20231;-92
2021/12/24 07:22:43;;;;;;;2.60;1.80;;;9.80;99.90;;;;;;4986567;28;20234;-93
2021/12/24 07:25:09;;;;;;;8.07;2.07;;;9.80;99.90;;;;;;4954563;28;20700;-93
2021/12/24 07:27:36;;;;;;;3.47;1.07;;;9.90;99.90;;;;;;4969717;28;20235;-93
2021/12/24 07:30:06;;;;;;;2.33;1.87;;;9.90;99.90;;;;;;4969175;28;20223;-93
2021/12/24 07:32:31;;;;;;;3.70;1.37;;;10.00;99.90;;;;;;5002125;28;20230;-93
2021/12/24 07:34:57;;;;;;;1.27;1.20;;;10.00;99.90;;;;;;4954325;28;20324;-94
2021/12/24 07:37:23;;;;;;;7.83;1.67;;;10.00;99.90;;;;;;4955249;28;20250;-94
2021/12/24 07:39:49;;;;;;;2.90;1.70;;;10.00;99.90;;;;;;4954254;28;20306;-95
2021/12/24 07:42:15;;;;;;;3.80;1.77;;;10.00;99.90;;;;;;4969218;28;20257;-91
2021/12/24 07:44:40;;;;;;;1.20;1.13;;;9.90;99.90;;;;;;4970001;28;20250;-93
2021/12/24 07:47:15;;;;;;;0.80;0.77;;;9.90;99.90;;;;;;4970312;28;20224;-91
2021/12/24 07:49:42;;;;;;;1.60;1.50;;;9.90;99.90;;;;;;4957371;28;20980;-94
2021/12/24 07:52:08;;;;;;;1.93;1.80;;;9.80;99.90;;;;;;4969707;28;20242;-93
2021/12/24 07:54:43;;;;;;;6.73;1.57;;;9.80;99.90;;;;;;4970428;28;20218;-93
2021/12/24 07:57:11;;;;;;;1.90;1.43;;;9.80;99.90;;;;;;4986484;28;20246;-92
2021/12/24 07:59:39;;;;;;;1.67;1.57;;;9.70;99.90;;;;;;4986628;28;20208;-93
2021/12/24 08:02:13;;;;;;;4.97;2.87;;;9.70;99.90;;;;;;4985815;28;20207;-93
2021/12/24 08:04:39;;;;;;;3.20;1.67;;;9.70;99.90;;;;;;4986627;28;20743;-93
2021/12/24 08:07:06;;;;;;;4.73;1.00;;;9.70;99.90;;;;;;4985753;28;20228;-92
2021/12/24 08:09:32;;;;;;;2.57;1.67;;;9.70;99.90;;;;;;4985863;28;20224;-94
2021/12/24 08:11:58;;;;;;;2.10;1.77;;;9.60;99.90;;;;;;5002491;28;20220;-93
2021/12/24 08:14:23;;;;;;;5.03;1.87;;;9.60;99.90;;;;;;4953008;28;20244;-91
2021/12/24 08:16:49;;;;;;;0.80;0.70;;;9.60;99.90;;;;;;4969503;28;20552;-92
2021/12/24 08:19:17;;;;;;;0.37;0.37;;;9.60;99.90;;;;;;4985176;28;20184;-92
2021/12/24 08:21:45;;;;;;;0.97;0.97;;;9.60;99.90;;;;;;4986264;28;20703;-90
2021/12/24 08:24:11;;;;;;;3.87;0.73;;;9.50;99.90;;;;;;4969704;28;20696;-90
2021/12/24 08:26:37;;;;;;;5.03;1.13;;;9.50;99.90;;;;;;4986684;28;20216;-90
2021/12/24 08:29:03;;;;;;;0.50;0.50;;;9.60;99.90;;;;;;4953393;28;20255;-90
2021/12/24 08:31:31;;;;;;;1.03;1.03;;;9.60;99.90;;;;;;4970283;28;20594;-90
2021/12/24 08:33:57;;;;;;;5.87;1.50;;;9.60;99.90;;;;;;4953816;28;20212;-90
2021/12/24 08:36:23;;;;;;;0.77;0.60;;;9.60;99.90;;;;;;4970713;28;20216;-90
2021/12/24 08:38:49;;;;;;;1.90;0.77;;;9.50;99.90;;;;;;4956837;28;20289;-90
2021/12/24 08:41:14;;;;;;;1.07;0.97;;;9.50;99.90;;;;;;4972829;28;20253;-90
2021/12/24 08:43:40;;;;;;;1.53;1.20;;;9.50;99.90;;;;;;4972945;28;20259;-90
2021/12/24 08:46:06;;;;;;;1.50;1.40;;;9.50;99.90;;;;;;4988589;28;20282;-90
2021/12/24 08:48:32;;;;;;;1.03;0.73;;;9.50;99.90;;;;;;4972286;28;20223;-89
2021/12/24 08:50:57;;;;;;;2.87;0.63;;;9.50;99.90;;;;;;4972922;28;20246;-90
2021/12/24 08:53:23;;;;;;;1.30;1.27;;;9.40;99.90;;;;;;4973277;28;20220;-90
2021/12/24 08:55:50;;;;;;;1.37;1.27;;;9.40;99.90;;;;;;4956418;28;20290;-90
2021/12/24 08:58:16;;;;;;;0.47;0.47;;;9.40;99.90;;;;;;4957664;28;20230;-90
2021/12/24 09:00:42;;;;;;;0.80;0.80;;;9.40;99.90;;;;;;4957079;28;20243;-90
2021/12/24 09:03:08;;;;;;;0.83;0.83;;;9.30;99.90;;;;;;4972632;28;20274;-90
2021/12/24 09:05:34;;;;;;;0.50;0.50;;;9.40;99.90;;;;;;4988609;28;20220;-90
2021/12/24 09:08:01;;;;;;;0.50;0.50;;;9.40;99.90;;;;;;4972344;28;20270;-90
2021/12/24 09:10:28;;;;;;;0.73;0.57;;;9.40;99.90;;;;;;4972997;28;20188;-90
2021/12/24 09:12:54;;;;;;;0.80;0.80;;;9.30;99.90;;;;;;4987748;28;20220;-90
2021/12/24 09:15:21;;;;;;;1.33;0.60;;;9.30;99.90;;;;;;4971671;28;20299;-90
2021/12/24 09:17:48;;;;;;;2.80;1.10;;;9.20;99.90;;;;;;4988127;28;20219;-90
2021/12/24 09:20:18;;;;;;;0.83;0.83;;;9.10;99.90;;;;;;4987968;28;20235;-91
2021/12/24 09:22:46;;;;;;;0.70;0.70;;;8.90;99.90;;;;;;4988397;28;20204;-90
2021/12/24 09:25:12;;;;;;;2.77;0.47;;;8.90;99.90;;;;;;4971934;28;20967;-90
2021/12/24 09:27:38;;;;;;;0.50;0.50;;;8.90;99.90;;;;;;4969797;28;20224;-90
2021/12/24 09:30:05;;;;;;;0.43;0.40;;;8.90;99.90;;;;;;4962167;28;20208;-90
2021/12/24 09:32:31;;;;;;;1.30;1.23;;;8.80;99.90;;;;;;4961932;28;20217;-90
2021/12/24 09:34:57;;;;;;;0.87;0.87;;;8.70;99.90;;;;;;4945186;28;20192;-90
2021/12/24 09:37:23;;;;;;;1.30;0.70;;;8.70;99.90;;;;;;4977915;28;20208;-90
2021/12/24 09:39:49;;;;;;;0.67;0.60;;;8.70;99.90;;;;;;4975290;28;20389;-90
2021/12/24 09:42:15;;;;;;;1.00;0.97;;;8.60;99.90;;;;;;4962222;28;20219;-90
2021/12/24 09:44:41;;;;;;;0.20;0.20;;;8.60;99.90;;;;;;4976526;28;20307;-90
2021/12/24 09:47:07;;;;;;;0.40;0.40;;;8.60;99.90;;;;;;4976805;28;20208;-90
2021/12/24 09:49:33;;;;;;;0.50;0.50;;;8.60;99.90;;;;;;4961242;28;20280;-90
2021/12/24 09:52:01;;;;;;;0.57;0.57;;;8.70;99.90;;;;;;4953391;28;20311;-90
2021/12/24 09:54:27;;;;;;;0.47;0.47;;;8.70;99.90;;;;;;4985932;28;20242;-90
2021/12/24 09:56:55;;;;;;;0.43;0.43;;;8.60;99.90;;;;;;4969235;28;20223;-90
2021/12/24 09:59:22;;;;;;;0.33;0.33;;;8.60;99.90;;;;;;4962401;28;20577;-91
2021/12/24 10:02:03;;;;;;;0.97;0.97;;;8.60;99.90;;;;;;4946864;28;20235;-90
2021/12/24 10:04:34;;;;;;;0.97;0.80;;;8.50;99.90;;;;;;4984948;28;20299;-90
2021/12/24 10:07:03;;;;;;;0.50;0.50;;;8.50;99.90;;;;;;4977595;28;20216;-89
2021/12/24 10:09:38;;;;;;;2.47;1.43;;;8.50;99.90;;;;;;4994601;28;20581;-89
2021/12/24 10:12:07;;;;;;;1.17;1.13;;;8.40;99.90;;;;;;4976557;28;20215;-89
2021/12/24 10:14:39;;;;;;;0.53;0.53;;;8.40;99.90;;;;;;4992477;28;20306;-91
2021/12/24 10:17:15;;;;;;;0.63;0.63;;;8.40;99.90;;;;;;4984141;28;20234;-92
2021/12/24 10:19:53;;;;;;;4.80;0.70;;;8.40;99.90;;;;;;4993432;28;21398;-90
2021/12/24 10:22:20;;;;;;;0.70;0.60;;;8.40;99.90;;;;;;4991958;28;20279;-90
2021/12/24 10:25:00;;;;;;;0.80;0.70;;;8.40;99.90;;;;;;4974401;28;20219;-91
2021/12/24 10:27:32;;;;;;;0.70;0.70;;;8.40;99.90;;;;;;4961642;28;20216;-91
2021/12/24 10:29:59;;;;;;;0.97;0.97;;;8.40;99.90;;;;;;4959647;28;20219;-90
2021/12/24 10:32:25;;;;;;;0.73;0.73;;;8.40;99.90;;;;;;4960894;28;20210;-90
2021/12/24 10:34:50;;;;;;;1.43;0.73;;;8.40;99.90;;;;;;4960172;28;20296;-90
2021/12/24 10:37:28;;;;;;;1.00;1.00;;;8.30;99.90;;;;;;4961516;28;20193;-90
2021/12/24 10:39:58;;;;;;;0.60;0.60;;;8.30;99.90;;;;;;4976580;28;20216;-91
2021/12/24 10:42:32;;;;;;;1.27;1.13;;;8.40;99.90;;;;;;4974933;28;20274;-91
2021/12/24 10:45:00;;;;;;;4.97;0.70;;;8.50;99.90;;;;;;4991403;28;20722;-90
2021/12/24 10:47:29;;;;;;;1.67;0.83;;;8.40;99.90;;;;;;4975832;28;20251;-90
2021/12/24 10:53:00;;;;;;;3.10;0.53;;;8.50;99.90;;;;;;4976575;28;20194;-91
2021/12/24 10:55:31;;;;;;;1.07;1.07;;;8.50;99.90;;;;;;4976779;28;20215;-90
2021/12/24 10:57:59;;;;;;;1.27;0.97;;;8.40;99.90;;;;;;4976928;28;20231;-90
2021/12/24 11:00:25;;;;;;;0.80;0.80;;;8.50;99.90;;;;;;4972880;28;20209;-90
2021/12/24 11:02:55;;;;;;;0.90;0.90;;;8.40;99.90;;;;;;4976956;28;20262;-90
2021/12/24 11:05:26;;;;;;;0.50;0.50;;;8.50;99.90;;;;;;4983925;28;20212;-90
2021/12/24 11:07:52;;;;;;;0.93;0.77;;;8.40;99.90;;;;;;4975426;28;20260;-91
2021/12/24 11:10:22;;;;;;;0.20;0.20;;;8.40;99.90;;;;;;4959890;28;20216;-90
2021/12/24 11:12:55;;;;;;;0.53;0.53;;;8.40;99.90;;;;;;4990478;28;20224;-90
2021/12/24 11:15:38;;;;;;;1.20;0.97;;;8.40;99.90;;;;;;4974396;28;20226;-91
2021/12/24 11:18:28;;;;;;;0.50;0.50;;;8.40;99.90;;;;;;4974741;28;20204;-89
2021/12/24 11:20:57;;;;;;;0.87;0.60;;;8.30;99.90;;;;;;4965411;28;20212;-90
2021/12/24 11:23:25;;;;;;;0.40;0.40;;;8.30;99.90;;;;;;4978681;28;20216;-90
2021/12/24 11:25:59;;;;;;;0.80;0.80;;;8.40;99.90;;;;;;4974763;28;20207;-90
2021/12/24 11:28:26;;;;;;;0.47;0.47;;;8.40;99.90;;;;;;4975611;28;20634;-90
2021/12/24 11:30:55;;;;;;;0.93;0.60;;;8.40;99.90;;;;;;4975003;28;20255;-91
2021/12/24 11:33:24;;;;;;;0.73;0.73;;;8.30;99.90;;;;;;4984216;28;20231;-91
2021/12/24 11:35:51;;;;;;;1.43;0.70;;;8.30;99.90;;;;;;4983782;28;20582;-90
2021/12/24 11:38:24;;;;;;;2.07;0.73;;;8.30;99.90;;;;;;4976114;28;20865;-90
2021/12/24 11:40:52;;;;;;;2.53;1.30;;;8.30;99.90;;;;;;4975446;28;20275;-89
2021/12/24 11:43:20;;;;;;;2.70;1.50;;;8.40;99.90;;;;;;4967791;28;20326;-90
2021/12/24 11:45:46;;;;;;;0.50;0.50;;;8.40;99.90;;;;;;4975961;28;20215;-90
2021/12/24 11:48:12;;;;;;;0.70;0.70;;;8.30;99.90;;;;;;4958395;28;20227;-93
2021/12/24 11:50:38;;;;;;;0.60;0.60;;;8.40;99.90;;;;;;4959274;28;20306;-91
2021/12/24 11:53:08;;;;;;;0.30;0.30;;;8.40;99.90;;;;;;4958849;28;20551;-91
2021/12/24 11:55:48;;;;;;;0.50;0.50;;;8.40;99.90;;;;;;4975860;28;20197;-90
2021/12/24 11:58:24;;;;;;;2.10;0.63;;;8.40;99.90;;;;;;4986158;28;20694;-92
2021/12/24 12:00:54;;;;;;;1.23;0.77;;;8.30;99.90;;;;;;4985765;28;20219;-90
2021/12/24 12:03:45;;;;;;;0.63;0.63;;;8.40;99.90;;;;;;5000635;28;20212;-89
2021/12/24 12:06:17;;;;;;;0.20;0.20;;;8.50;99.90;;;;;;4985434;28;20939;-90
2021/12/24 12:08:45;;;;;;;0.97;0.97;;;8.60;99.90;;;;;;4985421;28;20227;-91
2021/12/24 12:11:13;;;;;;;1.30;0.70;;;8.80;99.90;;;;;;4969309;28;20247;-90
2021/12/24 12:13:42;;;;;;;0.30;0.30;;;8.80;99.90;;;;;;4989266;28;20269;-91
2021/12/24 12:16:19;;;;;;;0.80;0.70;;;8.90;99.90;;;;;;5005194;28;20715;-90
2021/12/24 12:18:50;;;;;;;0.93;0.93;;;9.00;99.90;;;;;;4974423;28;20223;-90
2021/12/24 12:21:22;;;;;;;0.50;0.30;;;9.10;99.90;;;;;;4988895;28;20277;-91
2021/12/24 12:26:43;;;;;;;0.63;0.63;;;9.40;99.90;;;;;;4988883;28;20251;-91
2021/12/24 12:29:22;;;;;;;0.50;0.50;;;9.30;99.90;;;;;;5004835;28;20295;-90
2021/12/24 12:31:55;;;;;;;0.50;0.50;;;9.40;99.90;;;;;;5005877;28;20184;-91
2021/12/24 12:34:42;;;;;;;0.30;0.30;;;9.40;99.90;;;;;;4988220;28;20644;-90
2021/12/24 12:37:12;;;;;;;0.40;0.40;;;9.60;99.90;;;;;;4988812;28;20226;-89
2021/12/24 12:39:38;;;;;;;1.13;0.40;;;9.50;99.90;;;;;;4988852;28;20220;-90
2021/12/24 12:42:05;;;;;;;0.67;0.67;;;9.60;99.90;;;;;;4973310;28;20219;-90
2021/12/24 12:44:33;;;;;;;0.27;0.27;;;9.50;99.90;;;;;;4956610;28;20763;-91
2021/12/24 12:47:27;;;;;;;0.40;0.40;;;9.50;99.90;;;;;;4989039;28;20231;-91
2021/12/24 12:50:29;;;;;;;0.23;0.23;;;9.60;99.90;;;;;;5005085;28;20671;-90
2021/12/24 12:53:22;;;;;;;0.33;0.33;;;9.80;99.90;;;;;;4908432;29;20237;-90
2021/12/24 12:56:13;;;;;;;0.20;0.20;;;9.90;99.90;;;;;;4987278;28;20220;-90
2021/12/24 12:58:47;;;;;;;0.27;0.27;;;9.80;99.90;;;;;;4988707;28;20243;-90
2021/12/24 13:01:18;;;;;;;0.30;0.30;;;9.70;99.90;;;;;;5005046;28;20220;-90
2021/12/24 13:04:00;;;;;;;0.20;0.20;;;9.80;99.90;;;;;;4988726;28;20215;-90
2021/12/24 13:06:34;;;;;;;0.50;0.33;;;9.70;99.90;;;;;;4988109;28;20242;-90
2021/12/24 13:09:21;;;;;;;0.60;0.60;;;9.60;99.90;;;;;;4988367;28;20224;-93
2021/12/24 13:12:08;;;;;;;0.23;0.20;;;9.50;99.90;;;;;;4969866;28;20303;-90
2021/12/24 13:14:36;;;;;;;0.20;0.20;;;9.50;99.90;;;;;;4952363;28;20394;-90
2021/12/24 13:22:33;;;;;;;0.20;0.20;;;9.40;99.90;;;;;;4989030;28;20284;-91
2021/12/24 13:25:21;;;;;;;0.33;0.33;;;9.30;99.90;;;;;;4991175;28;20223;-90
2021/12/24 13:27:52;;;;;;;2.47;0.63;;;9.30;99.90;;;;;;5003783;28;20223;-91
2021/12/24 13:30:26;;;;;;;3.90;0.40;;;9.40;99.90;;;;;;5003577;28;20227;-91
2021/12/24 13:32:54;;;;;;;0.20;0.20;;;9.40;99.90;;;;;;4988783;28;20223;-91
2021/12/24 13:35:24;;;;;;;0.10;0.10;;;9.30;99.90;;;;;;4986492;28;20302;-91
2021/12/24 13:37:51;;;;;;;0.30;0.30;;;9.10;99.90;;;;;;4987583;28;20180;-91
2021/12/24 13:40:31;;;;;;;0.30;0.30;;;9.00;99.90;;;;;;4987828;28;20183;-91
2021/12/24 13:43:04;;;;;;;0.30;0.30;;;8.90;99.90;;;;;;4987635;28;20620;-91
2021/12/24 13:45:34;;;;;;;0.20;0.20;;;8.80;99.90;;;;;;4972601;28;20597;-92
2021/12/24 13:48:13;;;;;;;0.13;0.13;;;8.80;99.90;;;;;;4972111;28;20227;-91
2021/12/24 13:56:17;;;;;;;0.20;0.20;;;8.60;99.90;;;;;;4988531;28;20274;-91
2021/12/24 13:58:56;;;;;;;0.27;0.27;;;8.60;99.90;;;;;;4956271;28;20192;-91
2021/12/24 14:01:27;;;;;;;0.37;0.37;;;8.60;99.90;;;;;;5003901;28;20673;-90
2021/12/24 14:03:54;;;;;;;0.20;0.20;;;8.60;99.90;;;;;;4987009;28;20204;-90
2021/12/24 14:06:21;;;;;;;0.20;0.20;;;8.50;99.90;;;;;;4970894;28;20574;-91
2021/12/24 14:08:46;;;;;;;0.30;0.30;;;8.60;99.90;;;;;;4971490;28;20303;-91
2021/12/24 14:11:20;;;;;;;0.30;0.30;;;8.60;99.90;;;;;;4971342;28;20366;-91
2021/12/24 14:13:53;;;;;;;0.20;0.20;;;8.60;99.90;;;;;;4988155;28;20239;-90
2021/12/24 14:18:55;;;;;;;0.20;0.20;;;8.50;99.90;;;;;;4972109;28;20231;-90
2021/12/24 14:24:16;;;;;;;6.60;0.40;;;8.40;99.90;;;;;;4987919;28;20298;-90
2021/12/24 14:26:51;;;;;;;0.60;0.60;;;8.30;99.90;;;;;;4984156;28;20650;-90
2021/12/24 14:29:44;;;;;;;0.20;0.20;;;8.20;99.90;;;;;;4977365;28;20234;-90
2021/12/24 14:32:17;;;;;;;0.83;0.60;;;8.20;99.90;;;;;;4992723;28;20235;-90
2021/12/24 14:34:48;;;;;;;0.37;0.37;;;8.30;99.90;;;;;;4984404;28;20185;-90
2021/12/24 14:37:24;;;;;;;0.70;0.70;;;8.30;99.90;;;;;;4986601;28;20215;-90
2021/12/24 14:39:55;;;;;;;0.50;0.50;;;8.30;99.90;;;;;;4988001;28;20227;-90
2021/12/24 14:42:27;;;;;;;0.43;0.43;;;8.30;99.90;;;;;;4986662;28;20232;-90
2021/12/24 14:45:10;;;;;;;0.40;0.40;;;8.40;99.90;;;;;;5003426;28;20787;-90
2021/12/24 14:47:36;;;;;;;0.30;0.30;;;8.40;99.90;;;;;;4986839;28;20238;-90
2021/12/24 14:50:05;;;;;;;0.70;0.37;;;8.30;99.90;;;;;;4970842;28;20200;-90
2021/12/24 14:52:31;;;;;;;0.30;0.30;;;8.30;99.90;;;;;;5002480;28;20188;-91
2021/12/24 14:55:20;;;;;;;0.50;0.50;;;8.30;99.90;;;;;;4970234;28;20215;-90
2021/12/24 14:57:58;;;;;;;1.93;0.80;;;8.30;99.90;;;;;;4986618;28;20616;-90
2021/12/24 15:00:31;;;;;;;0.50;0.50;;;8.30;99.90;;;;;;4986070;28;20266;-91
2021/12/24 15:02:57;;;;;;;0.90;0.90;;;8.30;99.90;;;;;;4985625;28;20215;-91